Decoded Metar for KCPR (CASPER in WY, USA) (IATA:CPR) | Meteo·Mobile Aviation Weather
aviador You're here:

KCPR Decoded Metar

CASPER in WY, USA
Report Time2018-10-22 09:53:00
UTC Time2018-10-22 10:53:18
Flight Rules vfr VFR
Wind300° at 06 kt
W.Decomp.*RWY 26: 5.3 kt HW 2.8 kt RCW
RWY 21: 1.2 kt HW 5.9 kt RCW
W.Rank300° ranks 19
Current wind is below 300° avg. (8.4)
Visibility9999 m
Phenomena:N/A
Clouds:N/A
Expected CloudBase > 1,200 ft AGL from Temp-Dew spread
CeilingNone
Temp02°C (ISA -2)
Dew Point-1°C (81% RH)
AAT-2.3°C
QNH1021 hPa
Density Alt4,846 ft
Elevation5,318 ft
Report Wrong Elevation
Raw Report
KCPR 220953Z AUTO 30006KT 10SM CLR 02/M01 A3016 RMK AO2 SLP184
T00171011=

Extra information for KCPR:More info

Metar Taf Metar & Taf Last 4 Metars F.Rules Stats Wind Profile Meteogram Temp Stats Airport Information Weather charts Add Link Nearby VenuesMetar ALERT Operation Metar Decoded Social comments

AIRNAV info for KCPR